Time;durP1;ratioP1;P1;durP2;ratioP2;P2;SDS_P1;SDS_P2;PMS_P1;PMS_P2;Temp;Humidity;BMP_temperature;BMP_pressure;BME280_temperature;BME280_humidity;BME280_pressure;Samples;Min_cycle;Max_cycle;Signal;HPM_P1;HPM_P2
2022/01/01 00:01:09;;;;;;;9.85;6.35;;;;;;;10.14;100.00;101301.41;4958850;29;20476;-71
2022/01/01 00:03:55;;;;;;;10.43;6.80;;;;;;;10.22;100.00;101288.28;4959305;28;20045;-70
2022/01/01 00:06:41;;;;;;;9.60;6.78;;;;;;;10.04;100.00;101286.63;4959068;29;20031;-70
2022/01/01 00:09:27;;;;;;;9.32;6.68;;;;;;;10.03;100.00;101277.03;4945293;29;20110;-71
2022/01/01 00:12:13;;;;;;;9.43;6.63;;;;;;;9.79;100.00;101277.19;4946945;28;20027;-70
2022/01/01 00:14:58;;;;;;;9.82;6.50;;;;;;;9.88;100.00;101271.00;4958848;28;20368;-70
2022/01/01 00:17:44;;;;;;;9.32;6.40;;;;;;;9.95;100.00;101268.34;4959563;28;20449;-70
2022/01/01 00:20:30;;;;;;;8.77;6.45;;;;;;;10.24;100.00;101281.28;4944011;29;20031;-72
2022/01/01 00:23:15;;;;;;;9.88;6.70;;;;;;;10.28;100.00;101282.13;4965674;28;20051;-71
2022/01/01 00:26:01;;;;;;;9.15;6.63;;;;;;;10.21;100.00;101289.16;4978428;28;20030;-70
2022/01/01 00:28:48;;;;;;;9.73;6.78;;;;;;;10.34;100.00;101280.34;4977498;28;20109;-71
2022/01/01 00:31:33;;;;;;;10.13;7.10;;;;;;;10.42;100.00;101286.38;4978483;28;20042;-71
2022/01/01 00:34:19;;;;;;;10.55;6.88;;;;;;;10.38;100.00;101281.16;4978293;28;20449;-70
2022/01/01 00:37:05;;;;;;;8.88;6.88;;;;;;;10.53;100.00;101281.06;4977810;28;20049;-71
2022/01/01 00:39:51;;;;;;;10.70;6.90;;;;;;;10.50;100.00;101289.81;4977602;28;20037;-70
2022/01/01 00:42:37;;;;;;;11.48;6.97;;;;;;;10.43;100.00;101287.25;4977164;28;20030;-70
2022/01/01 00:45:23;;;;;;;8.73;6.53;;;;;;;10.63;100.00;101283.59;4978049;28;20038;-72
2022/01/01 00:48:09;;;;;;;10.00;7.22;;;;;;;10.54;100.00;101282.78;4977743;28;20026;-71
2022/01/01 00:50:56;;;;;;;9.43;6.15;;;;;;;10.57;100.00;101270.53;4977022;28;20141;-71
2022/01/01 00:53:42;;;;;;;12.98;7.20;;;;;;;10.54;100.00;101262.72;4978163;28;20026;-70
2022/01/01 00:56:27;;;;;;;9.52;6.18;;;;;;;10.52;100.00;101261.84;4977318;28;20149;-71
2022/01/01 00:59:15;;;;;;;8.27;5.88;;;;;;;10.53;100.00;101260.09;4977936;28;20452;-71
2022/01/01 01:02:05;;;;;;;8.38;5.78;;;;;;;10.52;100.00;101250.50;4977310;28;20061;-71
2022/01/01 01:04:51;;;;;;;8.55;6.15;;;;;;;10.66;100.00;101240.75;4963857;28;20523;-71
2022/01/01 01:07:39;;;;;;;7.88;5.80;;;;;;;10.72;100.00;101235.47;4977996;28;20033;-71
2022/01/01 01:10:27;;;;;;;8.85;5.40;;;;;;;10.54;100.00;101249.63;4963554;28;20034;-70
2022/01/01 01:13:15;;;;;;;10.40;5.30;;;;;;;10.51;100.00;101244.38;4977575;28;20034;-70
2022/01/01 01:16:01;;;;;;;8.18;5.80;;;;;;;10.64;100.00;101237.31;4976714;28;20051;-71
2022/01/01 01:18:47;;;;;;;7.93;5.50;;;;;;;10.71;100.00;101241.56;4963862;28;20041;-70
2022/01/01 01:21:33;;;;;;;8.32;5.93;;;;;;;10.92;100.00;101233.47;4977455;28;20503;-71
2022/01/01 01:24:19;;;;;;;8.25;5.28;;;;;;;10.77;100.00;101221.41;4975996;28;20042;-71
2022/01/01 01:27:06;;;;;;;7.22;5.22;;;;;;;10.71;100.00;101238.94;4962340;28;20062;-71
2022/01/01 01:29:52;;;;;;;6.97;5.10;;;;;;;10.57;100.00;101225.97;4977310;28;20034;-71
2022/01/01 01:32:37;;;;;;;9.18;5.30;;;;;;;10.60;100.00;101233.81;4962655;28;20121;-70
2022/01/01 01:35:23;;;;;;;6.45;4.97;;;;;;;10.61;100.00;101235.53;4976495;28;20054;-71
2022/01/01 01:38:09;;;;;;;7.60;5.32;;;;;;;10.62;100.00;101239.94;4962411;28;20038;-72
2022/01/01 01:40:55;;;;;;;7.70;5.38;;;;;;;10.63;100.00;101236.41;4976344;28;20066;-70
2022/01/01 01:43:41;;;;;;;10.45;5.55;;;;;;;10.63;100.00;101239.03;4976599;28;20189;-71
2022/01/01 01:46:26;;;;;;;8.20;5.35;;;;;;;10.55;100.00;101237.34;4976332;28;20034;-70
2022/01/01 01:49:12;;;;;;;7.68;5.43;;;;;;;10.64;100.00;101230.28;4976888;28;20042;-70
2022/01/01 01:51:58;;;;;;;8.13;5.70;;;;;;;10.74;100.00;101221.47;4976036;28;20463;-70
2022/01/01 01:54:44;;;;;;;8.05;5.10;;;;;;;10.71;100.00;101229.34;4975517;28;20023;-71
2022/01/01 01:57:30;;;;;;;8.13;5.03;;;;;;;10.68;100.00;101224.13;4975973;28;20027;-71
2022/01/01 02:03:23;;;;;;;6.47;4.70;;;;;;;10.62;100.00;101215.47;4976545;28;20089;-70
2022/01/01 02:06:09;;;;;;;7.15;5.22;;;;;;;10.49;100.00;101226.94;4975794;28;20031;-70
2022/01/01 02:08:55;;;;;;;9.25;5.45;;;;;;;10.48;100.00;101235.69;4961865;28;20035;-70
2022/01/01 02:11:41;;;;;;;7.50;5.15;;;;;;;10.80;100.00;101220.53;4976025;28;20511;-71
2022/01/01 02:17:19;;;;;;;6.78;5.05;;;;;;;10.64;100.00;101222.44;4976153;28;20022;-70
2022/01/01 02:20:13;;;;;;;7.30;5.25;;;;;;;10.71;100.00;101218.88;4975496;28;20049;-70
2022/01/01 02:23:01;;;;;;;7.32;5.15;;;;;;;10.52;100.00;101226.94;4961526;28;20062;-70
2022/01/01 02:25:48;;;;;;;6.80;5.18;;;;;;;10.67;100.00;101219.78;4975084;28;20078;-70
2022/01/01 02:28:34;;;;;;;7.72;5.20;;;;;;;10.73;100.00;101214.47;4975337;28;20042;-70
2022/01/01 02:31:20;;;;;;;6.70;5.18;;;;;;;10.44;100.00;101219.13;4976332;28;20030;-70
2022/01/01 02:34:07;;;;;;;7.82;4.93;;;;;;;10.32;100.00;101211.38;4961983;28;20034;-71
2022/01/01 02:36:53;;;;;;;7.07;5.20;;;;;;;10.40;100.00;101199.06;4975452;28;20026;-70
2022/01/01 02:39:39;;;;;;;7.75;5.72;;;;;;;10.55;100.00;101196.31;4974970;28;20027;-71
2022/01/01 02:42:25;;;;;;;7.80;5.57;;;;;;;10.80;100.00;101194.34;4962048;28;20046;-71
2022/01/01 02:45:13;;;;;;;7.82;5.45;;;;;;;10.61;100.00;101196.25;4975803;28;20480;-71
2022/01/01 02:47:58;;;;;;;7.63;5.60;;;;;;;10.76;100.00;101188.22;4962674;28;20045;-71
2022/01/01 02:50:44;;;;;;;8.90;5.63;;;;;;;10.58;100.00;101190.19;4975620;28;20034;-71
2022/01/01 02:53:30;;;;;;;8.55;5.90;;;;;;;10.80;100.00;101192.56;4975989;28;20101;-70
2022/01/01 02:56:16;;;;;;;8.88;5.85;;;;;;;10.81;100.00;101188.19;4962063;28;20045;-70
2022/01/01 02:59:01;;;;;;;9.73;6.32;;;;;;;10.49;100.00;101188.50;4961570;28;20034;-70
2022/01/01 03:01:47;;;;;;;9.05;6.18;;;;;;;10.70;100.00;101184.81;4961242;28;20027;-70
2022/01/01 03:04:33;;;;;;;8.05;5.68;;;;;;;10.55;100.00;101177.97;4975257;28;20097;-70
2022/01/01 03:07:19;;;;;;;7.75;5.28;;;;;;;10.58;100.00;101191.06;4974665;28;20035;-70
2022/01/01 03:10:05;;;;;;;10.07;5.82;;;;;;;10.67;100.00;101185.72;4975143;28;20448;-70
2022/01/01 03:12:51;;;;;;;7.32;5.20;;;;;;;10.55;100.00;101191.06;4975775;28;20113;-71
2022/01/01 03:15:36;;;;;;;7.97;5.75;;;;;;;10.35;100.00;101193.03;4976012;28;20392;-71
2022/01/01 03:18:22;;;;;;;8.48;5.78;;;;;;;10.46;100.00;101175.47;4962367;28;20058;-70
2022/01/01 03:21:08;;;;;;;7.93;5.63;;;;;;;10.38;100.00;101179.91;4974709;28;20038;-70
2022/01/01 03:23:54;;;;;;;8.60;5.93;;;;;;;10.20;100.00;101172.19;4975546;28;20063;-70
2022/01/01 03:26:40;;;;;;;8.98;6.15;;;;;;;10.33;100.00;101165.97;4962127;28;20482;-71
2022/01/01 03:29:28;;;;;;;8.40;6.07;;;;;;;10.02;100.00;101172.31;4962341;28;20374;-71
2022/01/01 03:32:15;;;;;;;9.13;6.28;;;;;;;10.16;100.00;101175.72;4975924;28;20034;-72
2022/01/01 03:35:01;;;;;;;8.55;6.30;;;;;;;10.40;100.00;101172.88;4961746;28;20054;-70
2022/01/01 03:37:47;;;;;;;13.15;6.53;;;;;;;10.13;100.00;101168.75;4962198;28;20031;-71
2022/01/01 03:40:33;;;;;;;12.75;6.47;;;;;;;10.41;100.00;101173.75;4961951;28;20023;-71
2022/01/01 03:43:18;;;;;;;12.45;6.72;;;;;;;10.02;100.00;101175.78;4962453;28;20029;-71
2022/01/01 03:46:04;;;;;;;9.65;6.55;;;;;;;10.02;100.00;101182.81;4974795;28;20058;-71
2022/01/01 03:48:50;;;;;;;10.52;6.40;;;;;;;10.22;100.00;101174.81;4976492;28;20469;-71
2022/01/01 03:51:35;;;;;;;9.35;6.75;;;;;;;10.13;100.00;101169.66;4979553;28;20034;-70
2022/01/01 03:54:21;;;;;;;10.15;6.15;;;;;;;9.93;100.00;101175.03;4979376;28;20444;-71
2022/01/01 03:57:07;;;;;;;7.93;5.80;;;;;;;10.05;100.00;101177.59;4978274;28;20034;-71
2022/01/01 03:59:53;;;;;;;9.07;6.28;;;;;;;10.28;100.00;101167.75;4979462;28;20030;-71
2022/01/01 04:02:39;;;;;;;9.15;6.63;;;;;;;9.96;100.00;101177.59;4965672;28;20094;-70
2022/01/01 04:05:24;;;;;;;8.02;6.03;;;;;;;10.13;100.00;101172.28;4978213;28;20031;-70
2022/01/01 04:08:13;;;;;;;9.95;6.63;;;;;;;10.17;100.00;101167.00;4965240;28;20062;-71
2022/01/01 04:10:58;;;;;;;10.30;6.13;;;;;;;10.02;100.00;101170.56;4978607;28;20034;-70
2022/01/01 04:13:44;;;;;;;9.10;6.03;;;;;;;10.35;100.00;101166.81;4979209;28;20045;-70
2022/01/01 04:16:30;;;;;;;8.93;6.43;;;;;;;10.18;100.00;101158.25;4978019;28;20519;-71
2022/01/01 04:19:16;;;;;;;10.07;6.15;;;;;;;10.16;100.00;101173.09;4979320;28;20042;-71
2022/01/01 04:22:02;;;;;;;12.02;7.13;;;;;;;10.20;100.00;101163.50;4978398;28;20034;-70
2022/01/01 04:24:47;;;;;;;10.75;6.78;;;;;;;10.11;100.00;101156.56;4977903;28;20043;-70
2022/01/01 04:27:33;;;;;;;11.70;7.10;;;;;;;10.35;100.00;101156.34;4977768;28;20026;-70
2022/01/01 04:30:19;;;;;;;9.38;6.90;;;;;;;10.48;100.00;101157.97;4977513;28;20114;-69
2022/01/01 04:33:05;;;;;;;9.65;6.93;;;;;;;10.37;100.00;101164.19;4978835;28;20034;-70
2022/01/01 04:35:51;;;;;;;10.27;6.63;;;;;;;10.18;100.00;101164.34;4977624;28;20034;-71
2022/01/01 04:38:39;;;;;;;9.55;6.22;;;;;;;10.59;100.00;101155.22;4977871;28;20427;-70
2022/01/01 04:41:24;;;;;;;9.98;6.78;;;;;;;10.25;100.00;101143.38;4977352;28;20067;-70
2022/01/01 04:44:10;;;;;;;9.18;6.60;;;;;;;10.16;100.00;101127.75;4976425;28;20519;-70
2022/01/01 04:46:56;;;;;;;11.48;7.10;;;;;;;10.52;100.00;101133.47;4977619;28;20042;-70
2022/01/01 04:49:42;;;;;;;10.48;7.47;;;;;;;10.30;100.00;101131.09;4976705;28;20132;-70
2022/01/01 04:52:27;;;;;;;13.63;7.85;;;;;;;10.75;100.00;101147.19;4977380;28;20027;-70
2022/01/01 04:55:13;;;;;;;13.13;8.25;;;;;;;10.74;100.00;101174.28;4962420;28;20027;-70
2022/01/01 04:57:59;;;;;;;12.30;7.85;;;;;;;10.65;100.00;101178.75;4963107;28;20095;-71
2022/01/01 05:00:45;;;;;;;13.18;8.38;;;;;;;10.59;100.00;101190.16;4963480;28;20105;-70
2022/01/01 05:03:30;;;;;;;11.48;8.10;;;;;;;10.80;100.00;101187.31;4977829;28;20049;-71
2022/01/01 05:06:16;;;;;;;11.23;7.82;;;;;;;10.65;100.00;101202.34;4977100;28;20170;-70
2022/01/01 05:09:02;;;;;;;11.85;7.93;;;;;;;10.43;100.00;101203.41;4962983;28;20363;-70
2022/01/01 05:11:49;;;;;;;12.40;7.65;;;;;;;10.28;100.00;101228.00;4962095;28;20031;-70
2022/01/01 05:14:35;;;;;;;11.50;7.85;;;;;;;10.32;100.00;101228.84;4976635;28;20470;-71
2022/01/01 05:17:21;;;;;;;13.02;7.78;;;;;;;10.06;100.00;101229.91;4975784;28;20089;-70
2022/01/01 05:20:07;;;;;;;11.93;7.53;;;;;;;10.23;100.00;101242.88;4962886;28;20031;-71
2022/01/01 05:22:53;;;;;;;11.63;7.72;;;;;;;10.02;100.00;101240.38;4977221;28;20482;-71
2022/01/01 05:25:38;;;;;;;12.27;7.93;;;;;;;10.09;100.00;101234.28;4963870;28;20027;-71
2022/01/01 05:28:24;;;;;;;13.38;8.05;;;;;;;10.07;100.00;101228.16;4976835;28;20364;-70
2022/01/01 05:31:11;;;;;;;12.38;8.57;;;;;;;9.84;100.00;101230.03;4977605;28;20332;-71
2022/01/01 05:33:57;;;;;;;13.88;8.75;;;;;;;9.66;100.00;101223.16;4976535;28;20031;-70
2022/01/01 05:36:42;;;;;;;12.48;8.57;;;;;;;9.80;100.00;101220.47;4964246;28;20118;-71
2022/01/01 05:39:28;;;;;;;18.20;9.30;;;;;;;9.83;100.00;101217.81;4962944;28;20185;-69
2022/01/01 05:42:14;;;;;;;13.27;8.10;;;;;;;9.44;100.00;101225.88;4963371;28;20070;-70
2022/01/01 05:45:00;;;;;;;13.40;9.00;;;;;;;9.55;100.00;101231.94;4977070;28;20065;-71
2022/01/01 05:47:46;;;;;;;12.07;8.15;;;;;;;9.65;100.00;101224.03;4977316;28;20448;-71
2022/01/01 05:50:31;;;;;;;13.65;8.40;;;;;;;9.46;100.00;101227.66;4976203;28;20134;-71
2022/01/01 05:53:18;;;;;;;14.70;9.43;;;;;;;9.80;100.00;101223.06;4976692;28;20038;-70
2022/01/01 05:56:04;;;;;;;13.07;9.00;;;;;;;9.75;100.00;101224.84;4975867;28;20030;-70
2022/01/01 05:58:50;;;;;;;16.52;10.07;;;;;;;9.98;100.00;101233.44;4963084;28;20034;-70
2022/01/01 06:01:36;;;;;;;16.35;11.02;;;;;;;9.71;100.00;101238.84;4962533;28;20033;-71
2022/01/01 06:04:21;;;;;;;18.00;11.10;;;;;;;10.20;100.00;101236.81;4976560;28;20123;-70
2022/01/01 06:07:07;;;;;;;16.63;11.15;;;;;;;9.89;100.00;101238.75;4976031;28;20035;-70
2022/01/01 06:09:53;;;;;;;17.63;11.45;;;;;;;10.31;100.00;101241.06;4975334;28;20023;-71
2022/01/01 06:12:39;;;;;;;17.40;10.88;;;;;;;9.91;100.00;101243.09;4975993;28;20121;-71
2022/01/01 06:15:25;;;;;;;18.90;10.75;;;;;;;9.79;100.00;101239.66;4976415;28;20030;-70
2022/01/01 06:18:11;;;;;;;15.40;10.43;;;;;;;9.96;100.00;101243.03;4974735;28;20067;-70
2022/01/01 06:20:57;;;;;;;15.98;11.00;;;;;;;9.90;100.00;101238.69;4975825;28;20038;-71
2022/01/01 06:23:43;;;;;;;16.75;10.73;;;;;;;10.16;100.00;101259.50;4976325;28;20435;-71
2022/01/01 06:26:29;;;;;;;17.70;11.10;;;;;;;9.99;100.00;101258.72;4975746;28;20019;-71
2022/01/01 06:29:14;;;;;;;16.00;11.10;;;;;;;9.90;100.00;101249.16;4976504;28;20081;-71
2022/01/01 06:32:00;;;;;;;18.92;12.77;;;;;;;9.71;100.00;101247.56;4962190;28;20101;-70
2022/01/01 06:34:46;;;;;;;21.23;13.00;;;;;;;9.50;100.00;101244.19;4962184;28;20078;-71
2022/01/01 06:37:32;;;;;;;20.55;12.63;;;;;;;9.67;100.00;101239.72;4974857;28;20049;-70
2022/01/01 06:40:18;;;;;;;21.80;12.52;;;;;;;9.83;100.00;101239.66;4975641;28;20023;-71
2022/01/01 06:43:03;;;;;;;21.77;13.07;;;;;;;9.54;100.00;101241.56;4975673;28;20411;-70
2022/01/01 06:45:50;;;;;;;18.25;12.38;;;;;;;9.90;100.00;101251.78;4961296;28;20026;-70
2022/01/01 06:48:35;;;;;;;20.05;12.57;;;;;;;9.97;100.00;101255.28;4976182;28;20038;-71
2022/01/01 06:51:21;;;;;;;20.98;12.90;;;;;;;9.60;100.00;101251.97;4975188;28;20027;-70
2022/01/01 06:54:07;;;;;;;19.73;12.02;;;;;;;9.78;100.00;101280.66;4975144;28;20031;-70
2022/01/01 06:56:53;;;;;;;20.95;12.68;;;;;;;10.04;100.00;101283.13;4975501;28;20050;-70
2022/01/01 06:59:38;;;;;;;17.40;11.10;;;;;;;9.72;100.00;101291.16;4975430;28;20045;-71
2022/01/01 07:02:24;;;;;;;19.35;12.55;;;;;;;9.75;100.00;101298.13;4976192;28;20142;-70
2022/01/01 07:05:11;;;;;;;19.15;12.40;;;;;;;9.68;100.00;101293.78;4975390;28;20037;-72
2022/01/01 07:07:57;;;;;;;17.88;11.60;;;;;;;9.57;100.00;101293.84;4975598;28;20031;-71
2022/01/01 07:10:44;;;;;;;19.17;13.15;;;;;;;9.63;100.00;101291.22;4975196;28;20027;-71
2022/01/01 07:13:30;;;;;;;20.02;11.88;;;;;;;9.81;100.00;101309.44;4976231;28;20428;-70
2022/01/01 07:16:17;;;;;;;16.63;11.48;;;;;;;9.98;100.00;101307.56;4961686;28;20041;-69
2022/01/01 07:19:03;;;;;;;18.10;11.68;;;;;;;9.84;100.00;101300.69;4973912;28;20094;-69
2022/01/01 07:21:49;;;;;;;17.08;11.25;;;;;;;10.26;100.00;101304.81;4975153;28;20053;-70
2022/01/01 07:24:34;;;;;;;17.30;11.63;;;;;;;9.31;100.00;101295.69;4976425;28;20170;-72
2022/01/01 07:27:20;;;;;;;17.27;11.38;;;;;;;9.76;100.00;101279.81;4979029;28;20471;-70
2022/01/01 07:30:08;;;;;;;19.85;12.50;;;;;;;9.71;100.00;101278.09;4978484;28;20034;-70
2022/01/01 07:32:53;;;;;;;19.38;12.82;;;;;;;9.85;100.00;101284.97;4979625;28;20023;-71
2022/01/01 07:35:40;;;;;;;18.85;11.95;;;;;;;10.11;100.00;101295.34;4978814;28;20341;-70
2022/01/01 07:38:26;;;;;;;18.00;11.77;;;;;;;10.10;100.00;101290.97;4978863;28;20030;-70
2022/01/01 07:41:11;;;;;;;17.13;11.02;;;;;;;10.28;100.00;101285.59;4979532;28;20117;-70
2022/01/01 07:43:57;;;;;;;16.13;11.40;;;;;;;10.07;100.00;101285.75;4979635;28;20037;-70
2022/01/01 07:46:43;;;;;;;15.05;11.25;;;;;;;9.88;100.00;101299.78;4979193;28;20106;-71
2022/01/01 07:49:29;;;;;;;15.63;11.60;;;;;;;10.16;100.00;101311.03;4978005;28;20031;-70
2022/01/01 07:52:14;;;;;;;17.15;11.95;;;;;;;10.45;100.00;101311.69;4978386;28;20090;-70
2022/01/01 07:55:00;;;;;;;18.13;11.80;;;;;;;9.99;100.00;101309.34;4978803;28;20162;-71
2022/01/01 07:57:46;;;;;;;14.88;11.07;;;;;;;10.31;100.00;101306.53;4978355;28;20055;-71
2022/01/01 08:00:32;;;;;;;15.18;10.55;;;;;;;10.46;100.00;101316.03;4964439;28;20030;-70
2022/01/01 08:03:18;;;;;;;15.73;11.20;;;;;;;10.50;100.00;101318.63;4977779;28;20041;-70
2022/01/01 08:06:04;;;;;;;18.20;11.02;;;;;;;10.78;100.00;101314.91;4978370;28;20026;-69
2022/01/01 08:08:49;;;;;;;16.42;11.57;;;;;;;10.44;100.00;101308.19;4963014;28;20035;-71
2022/01/01 08:11:35;;;;;;;15.18;11.05;;;;;;;10.58;100.00;101311.59;4979034;28;20046;-71
2022/01/01 08:14:22;;;;;;;15.15;11.07;;;;;;;10.75;100.00;101317.53;4978154;28;20022;-70
2022/01/01 08:17:08;;;;;;;18.20;10.43;;;;;;;11.25;100.00;101304.78;4978122;28;20118;-70
2022/01/01 08:19:53;;;;;;;13.60;9.30;;;;;;;10.70;100.00;101316.72;4977879;28;20022;-71
2022/01/01 08:22:39;;;;;;;15.75;10.75;;;;;;;10.98;100.00;101312.97;4964880;28;20031;-71
2022/01/01 08:25:26;;;;;;;13.27;9.98;;;;;;;10.51;100.00;101319.47;4963259;28;20122;-72
2022/01/01 08:28:12;;;;;;;13.38;9.68;;;;;;;10.16;100.00;101296.16;4964262;28;20026;-71
2022/01/01 08:30:57;;;;;;;14.27;9.63;;;;;;;10.35;100.00;101303.03;4979028;28;20113;-70
2022/01/01 08:33:43;;;;;;;15.07;10.15;;;;;;;10.78;100.00;101293.06;4977666;28;20425;-71
2022/01/01 08:36:29;;;;;;;14.45;10.38;;;;;;;10.55;100.00;101285.41;4977637;28;20086;-71
2022/01/01 08:39:15;;;;;;;16.63;10.88;;;;;;;10.75;100.00;101291.34;4978176;28;20031;-71
2022/01/01 08:42:01;;;;;;;16.63;11.13;;;;;;;10.59;100.00;101287.13;4964275;28;20473;-71
2022/01/01 08:44:48;;;;;;;14.65;9.98;;;;;;;10.72;100.00;101287.88;4976417;28;20448;-71
2022/01/01 08:47:33;;;;;;;16.17;10.38;;;;;;;10.44;100.00;101297.72;4964253;28;20452;-71
2022/01/01 08:50:19;;;;;;;16.42;10.85;;;;;;;10.76;100.00;101290.44;4977159;28;20503;-72
2022/01/01 08:53:05;;;;;;;15.20;11.00;;;;;;;11.05;100.00;101287.56;4977938;28;20027;-70
2022/01/01 08:55:52;;;;;;;17.02;11.13;;;;;;;11.19;100.00;101286.53;4977696;28;20099;-70
2022/01/01 08:58:39;;;;;;;16.27;11.40;;;;;;;11.69;100.00;101281.56;4977479;28;20027;-71
2022/01/01 09:01:25;;;;;;;18.30;10.95;;;;;;;11.52;100.00;101282.63;4977918;28;20045;-74
2022/01/01 09:04:12;;;;;;;16.25;11.40;;;;;;;11.81;100.00;101284.03;4977392;28;20176;-71
2022/01/01 09:06:58;;;;;;;16.80;11.63;;;;;;;11.28;100.00;101277.66;4977205;28;20031;-71
2022/01/01 09:09:44;;;;;;;15.90;11.70;;;;;;;11.27;100.00;101281.19;4977684;28;20019;-72
2022/01/01 09:12:30;;;;;;;17.42;12.10;;;;;;;11.54;100.00;101275.63;4977364;28;20472;-70
2022/01/01 09:15:16;;;;;;;17.35;11.05;;;;;;;12.13;100.00;101289.69;4976909;28;20031;-71
2022/01/01 09:18:02;;;;;;;16.20;11.20;;;;;;;12.84;100.00;101288.53;4963763;28;20065;-71
2022/01/01 09:20:48;;;;;;;18.75;11.55;;;;;;;12.76;100.00;101279.91;4977647;28;20106;-72
2022/01/01 09:23:34;;;;;;;15.80;11.07;;;;;;;12.09;100.00;101276.66;4962880;28;20062;-71
2022/01/01 09:26:21;;;;;;;13.85;10.05;;;;;;;11.97;100.00;101271.56;4961522;28;20556;-71
2022/01/01 09:29:07;;;;;;;15.35;10.68;;;;;;;12.15;100.00;101280.03;4977325;28;20031;-71
2022/01/01 09:31:53;;;;;;;16.58;11.02;;;;;;;11.70;100.00;101270.16;4975622;28;20405;-70
2022/01/01 09:34:39;;;;;;;15.15;11.05;;;;;;;11.65;100.00;101266.75;4976099;28;20026;-70
2022/01/01 09:37:25;;;;;;;17.95;12.30;;;;;;;11.76;100.00;101263.97;4976721;28;20031;-71
2022/01/01 09:40:12;;;;;;;15.73;11.20;;;;;;;11.43;100.00;101260.00;4976507;28;20114;-72
2022/01/01 09:42:58;;;;;;;15.25;11.38;;;;;;;11.62;100.00;101260.69;4962902;28;20364;-70
2022/01/01 09:45:44;;;;;;;16.50;10.85;;;;;;;11.79;100.00;101266.56;4974584;28;20333;-71
2022/01/01 09:48:31;;;;;;;15.45;10.85;;;;;;;11.90;100.00;101262.03;4976694;28;20022;-72
2022/01/01 09:51:16;;;;;;;14.32;9.65;;;;;;;11.40;100.00;101252.16;4976281;28;20093;-70
2022/01/01 09:54:02;;;;;;;16.20;11.32;;;;;;;11.40;100.00;101260.03;4977121;28;20023;-71
2022/01/01 09:56:48;;;;;;;15.25;11.45;;;;;;;11.75;100.00;101249.13;4975711;28;20027;-71
2022/01/01 09:59:37;;;;;;;17.15;11.10;;;;;;;11.89;100.00;101248.03;4976578;28;20034;-72
2022/01/01 10:02:22;;;;;;;16.45;11.57;;;;;;;11.89;100.00;101250.66;4975709;28;20030;-72
2022/01/01 10:05:08;;;;;;;12.02;8.77;;;;;;;11.94;100.00;101254.06;4975664;28;20423;-73
2022/01/01 10:07:59;;;;;;;13.77;9.77;;;;;;;11.98;100.00;101257.53;4976399;28;20038;-74
2022/01/01 10:10:47;;;;;;;11.95;8.90;;;;;;;12.13;100.00;101254.69;4975252;28;20038;-71
2022/01/01 10:13:36;;;;;;;11.07;8.48;;;;;;;12.14;100.00;101259.91;4976547;28;20031;-71
2022/01/01 10:16:22;;;;;;;14.35;8.93;;;;;;;12.38;100.00;101261.28;4975353;28;20023;-71
2022/01/01 10:19:08;;;;;;;10.82;8.38;;;;;;;12.73;100.00;101258.91;4975079;28;20027;-71
2022/01/01 10:21:56;;;;;;;12.35;8.63;;;;;;;12.54;100.00;101249.63;4974764;28;20042;-71
2022/01/01 10:28:04;;;;;;;11.68;8.85;;;;;;;12.85;100.00;101248.19;4976285;28;20030;-71
2022/01/01 10:30:50;;;;;;;12.23;8.45;;;;;;;12.89;100.00;101244.59;4975810;28;20039;-71
2022/01/01 10:33:44;;;;;;;15.32;10.35;;;;;;;13.46;100.00;101240.84;4975111;28;20027;-71
2022/01/01 10:36:31;;;;;;;12.20;9.20;;;;;;;13.56;100.00;101251.19;4974564;28;20019;-71
2022/01/01 10:39:21;;;;;;;14.13;8.98;;;;;;;14.08;100.00;101250.88;4976280;28;20058;-70
2022/01/01 10:42:12;;;;;;;10.55;7.90;;;;;;;14.30;100.00;101257.41;4963094;28;20022;-71
2022/01/01 10:44:58;;;;;;;10.85;8.50;;;;;;;13.67;100.00;101254.44;4948666;28;20046;-71
2022/01/01 10:47:44;;;;;;;10.85;8.10;;;;;;;13.96;100.00;101248.53;4975728;28;20058;-70
2022/01/01 10:50:34;;;;;;;14.05;8.77;;;;;;;13.80;100.00;101255.94;4975610;28;20039;-71
2022/01/01 10:53:20;;;;;;;10.98;7.97;;;;;;;14.44;100.00;101255.31;4975741;28;20022;-70
2022/01/01 10:56:20;;;;;;;11.32;7.63;;;;;;;14.32;100.00;101245.91;4974703;28;20031;-71
2022/01/01 10:59:09;;;;;;;9.73;7.47;;;;;;;14.06;100.00;101240.38;4965046;28;20026;-71
2022/01/01 11:01:57;;;;;;;10.40;7.20;;;;;;;13.94;100.00;101237.16;4979989;28;20361;-73
2022/01/01 11:04:44;;;;;;;9.18;6.95;;;;;;;13.48;100.00;101233.81;4978350;28;20470;-73
2022/01/01 11:07:31;;;;;;;11.30;7.55;;;;;;;13.19;100.00;101244.06;4980066;28;20030;-73
2022/01/01 11:10:18;;;;;;;10.65;7.05;;;;;;;13.52;100.00;101243.38;4966181;28;20041;-74
2022/01/01 11:13:05;;;;;;;10.38;7.28;;;;;;;13.54;100.00;101238.94;4966498;28;20402;-73
2022/01/01 11:15:51;;;;;;;8.57;6.18;;;;;;;13.24;100.00;101243.09;4979199;28;20023;-73
2022/01/01 11:18:39;;;;;;;10.75;7.13;;;;;;;13.05;100.00;101236.44;4980365;28;20035;-73
2022/01/01 11:21:25;;;;;;;10.25;7.30;;;;;;;13.08;100.00;101238.13;4978812;28;20128;-74
2022/01/01 11:24:13;;;;;;;10.25;7.18;;;;;;;13.42;100.00;101240.06;4978954;28;20050;-73
2022/01/01 11:26:59;;;;;;;9.32;6.78;;;;;;;13.41;100.00;101238.34;4965326;28;20034;-73
2022/01/01 11:29:50;;;;;;;11.80;7.95;;;;;;;13.33;100.00;101242.00;4979842;28;20034;-74
2022/01/01 11:32:40;;;;;;;12.30;9.15;;;;;;;13.41;100.00;101238.34;4965394;28;20093;-73
2022/01/01 11:35:31;;;;;;;12.25;8.27;;;;;;;13.22;100.00;101231.69;4965993;28;20370;-73
2022/01/01 11:38:18;;;;;;;11.75;8.00;;;;;;;13.40;100.00;101233.97;4979622;28;20079;-74
2022/01/01 11:41:12;;;;;;;12.25;8.00;;;;;;;13.22;100.00;101241.38;4965923;28;20104;-72
2022/01/01 11:43:58;;;;;;;14.02;8.63;;;;;;;13.38;100.00;101235.75;4979588;28;20066;-74
2022/01/01 11:46:59;;;;;;;12.90;8.55;;;;;;;13.83;100.00;101237.41;4979730;28;20038;-73
2022/01/01 11:49:46;;;;;;;11.95;7.78;;;;;;;13.77;100.00;101231.41;4978947;28;20037;-73
2022/01/01 11:52:43;;;;;;;10.40;7.43;;;;;;;13.70;100.00;101228.03;4978681;28;20068;-73
2022/01/01 11:55:29;;;;;;;11.50;7.75;;;;;;;13.98;100.00;101223.88;4979545;28;20109;-74
2022/01/01 11:58:15;;;;;;;11.95;7.70;;;;;;;13.96;100.00;101230.09;4965401;28;20126;-74
2022/01/01 12:01:10;;;;;;;11.07;8.05;;;;;;;13.65;100.00;101235.19;4978280;28;20519;-73
2022/01/01 12:03:56;;;;;;;11.55;8.45;;;;;;;13.74;100.00;101220.94;4979363;28;20031;-74
2022/01/01 12:06:41;;;;;;;11.55;7.63;;;;;;;13.89;100.00;101223.22;4980563;28;20435;-74
2022/01/01 12:09:27;;;;;;;10.40;8.02;;;;;;;13.61;100.00;101217.72;4977858;28;20045;-73
2022/01/01 12:12:13;;;;;;;13.75;9.05;;;;;;;14.03;100.00;101216.72;4965186;28;20125;-73
2022/01/01 12:14:59;;;;;;;12.50;8.60;;;;;;;14.06;100.00;101215.78;4978016;28;20031;-74
2022/01/01 12:17:48;;;;;;;12.40;8.50;;;;;;;14.07;100.00;101217.53;4977928;28;20038;-74
2022/01/01 12:20:41;;;;;;;12.63;8.38;;;;;;;14.11;100.00;101219.22;4964398;28;20034;-73
2022/01/01 12:23:36;;;;;;;13.00;8.98;;;;;;;14.12;100.00;101202.47;4977978;28;20042;-73
2022/01/01 12:26:31;;;;;;;12.35;8.82;;;;;;;14.24;100.00;101205.69;4978011;28;20030;-73
2022/01/01 12:29:22;;;;;;;12.32;8.40;;;;;;;13.80;100.00;101203.25;4978803;28;20106;-73
2022/01/01 12:32:08;;;;;;;12.25;8.77;;;;;;;13.83;100.00;101189.13;4978706;28;20031;-73
2022/01/01 12:35:17;;;;;;;11.63;8.80;;;;;;;14.03;100.00;101198.28;4978769;28;20356;-73
2022/01/01 12:38:11;;;;;;;14.90;8.95;;;;;;;14.22;100.00;101207.53;4964009;28;20027;-72
2022/01/01 12:41:05;;;;;;;12.40;8.35;;;;;;;14.30;100.00;101209.97;4964559;28;20023;-73
2022/01/01 12:43:54;;;;;;;12.95;8.52;;;;;;;13.95;100.00;101213.41;4977760;28;20026;-73
2022/01/01 12:46:51;;;;;;;12.30;8.73;;;;;;;14.44;100.00;101202.59;4977512;28;20046;-74